Time;durP1;ratioP1;P1;durP2;ratioP2;P2;SDS_P1;SDS_P2;PMS_P1;PMS_P2;Temp;Humidity;BMP_temperature;BMP_pressure;BME280_temperature;BME280_humidity;BME280_pressure;Samples;Min_cycle;Max_cycle;Signal;HPM_P1;HPM_P2
2020/12/07 00:01:55;;;;;;;21.23;5.97;;;;;;;5.17;60.90;102718.80;1743233;82;21140;-45
2020/12/07 00:04:24;;;;;;;13.80;7.75;;;;;;;5.17;60.99;102709.77;1732074;82;21290;-45
2020/12/07 00:06:53;;;;;;;11.55;7.15;;;;;;;5.16;60.93;102713.56;1744566;82;21124;-46
2020/12/07 00:09:22;;;;;;;14.47;7.10;;;;;;;5.14;60.82;102719.09;1734734;82;21176;-45
2020/12/07 00:11:51;;;;;;;13.78;6.20;;;;;;;5.11;60.71;102709.98;1734510;82;21306;-45
2020/12/07 00:14:20;;;;;;;15.48;7.85;;;;;;;5.08;60.54;102712.45;1741974;82;21183;-45
2020/12/07 00:16:48;;;;;;;12.20;6.53;;;;;;;5.06;60.90;102717.58;1737575;82;21160;-46
2020/12/07 00:19:16;;;;;;;15.88;7.08;;;;;;;5.07;60.94;102710.72;1738957;82;21152;-45
2020/12/07 00:21:45;;;;;;;17.30;8.25;;;;;;;5.07;60.82;102713.30;1739568;82;21125;-45
2020/12/07 00:24:13;;;;;;;16.73;7.12;;;;;;;5.06;60.63;102716.69;1747410;82;21161;-45
2020/12/07 00:26:44;;;;;;;9.60;6.25;;;;;;;5.05;61.08;102707.22;1740338;82;21183;-46
2020/12/07 00:29:13;;;;;;;17.30;7.25;;;;;;;5.06;61.36;102709.84;1738170;82;21168;-46
2020/12/07 00:31:41;;;;;;;14.28;6.45;;;;;;;5.09;61.56;102712.94;1739003;82;21164;-45
2020/12/07 00:34:09;;;;;;;11.22;6.25;;;;;;;5.09;61.54;102719.39;1737947;82;21109;-46
2020/12/07 00:36:44;;;;;;;11.50;7.03;;;;;;;5.08;61.44;102712.45;1740443;82;21160;-45
2020/12/07 00:39:12;;;;;;;12.95;7.22;;;;;;;5.07;61.39;102710.72;1734189;82;21148;-45
2020/12/07 00:41:41;;;;;;;11.33;6.55;;;;;;;5.04;61.26;102703.75;1742485;82;21278;-46
2020/12/07 00:44:09;;;;;;;19.00;7.53;;;;;;;5.04;61.29;102705.45;1732331;82;21188;-46
2020/12/07 00:46:38;;;;;;;17.30;6.85;;;;;;;5.03;61.19;102707.58;1738681;82;21149;-46
2020/12/07 00:49:06;;;;;;;20.70;7.00;;;;;;;5.00;61.17;102703.20;1734073;82;21764;-45
2020/12/07 00:51:34;;;;;;;12.78;6.60;;;;;;;4.97;61.36;102709.53;1740496;82;21145;-46
2020/12/07 00:54:04;;;;;;;10.45;6.20;;;;;;;4.95;61.18;102705.63;1724566;82;21213;-45
2020/12/07 00:56:33;;;;;;;13.18;6.67;;;;;;;4.91;61.16;102705.06;1732314;82;21161;-45
2020/12/07 00:59:03;;;;;;;14.40;6.80;;;;;;;4.88;61.09;102707.53;1728334;82;21173;-46
2020/12/07 01:01:32;;;;;;;16.73;7.30;;;;;;;4.85;61.15;102706.16;1718097;82;21157;-45
2020/12/07 01:04:01;;;;;;;15.18;7.03;;;;;;;4.85;61.50;102710.02;1728666;82;21145;-45
2020/12/07 01:06:31;;;;;;;18.48;7.67;;;;;;;4.86;61.51;102708.33;1722810;82;21137;-45
2020/12/07 01:09:00;;;;;;;14.85;7.10;;;;;;;4.87;61.65;102700.64;1724322;82;21177;-45
2020/12/07 01:11:28;;;;;;;13.20;6.78;;;;;;;4.90;61.55;102698.14;1727155;82;21294;-45
2020/12/07 01:13:59;;;;;;;20.48;8.55;;;;;;;4.92;61.50;102699.06;1721159;82;21157;-46
2020/12/07 01:16:28;;;;;;;13.88;7.95;;;;;;;4.92;61.59;102696.48;1728064;82;21279;-45
2020/12/07 01:18:57;;;;;;;17.37;7.62;;;;;;;4.91;61.69;102702.48;1726027;82;21165;-46
2020/12/07 01:21:26;;;;;;;14.13;7.25;;;;;;;4.86;61.43;102701.45;1728317;82;21172;-45
2020/12/07 01:23:54;;;;;;;21.70;8.18;;;;;;;4.86;61.39;102691.13;1720624;82;21298;-45
2020/12/07 01:26:24;;;;;;;16.97;7.47;;;;;;;4.87;61.40;102696.77;1730425;82;21161;-46
2020/12/07 01:28:53;;;;;;;14.87;7.50;;;;;;;4.87;61.30;102703.21;1718216;82;21157;-46
2020/12/07 01:31:22;;;;;;;16.62;6.95;;;;;;;4.85;61.17;102699.70;1709709;82;21165;-46
2020/12/07 01:33:50;;;;;;;14.80;6.72;;;;;;;4.83;61.13;102696.20;1730767;82;21298;-45
2020/12/07 01:36:19;;;;;;;13.20;6.95;;;;;;;4.80;61.07;102699.95;1726807;82;21150;-45
2020/12/07 01:38:48;;;;;;;13.80;7.53;;;;;;;4.73;61.02;102698.43;1722030;82;21149;-45
2020/12/07 01:41:17;;;;;;;14.98;6.87;;;;;;;4.69;61.28;102691.02;1728012;82;21287;-45
2020/12/07 01:43:46;;;;;;;13.15;6.70;;;;;;;4.71;61.37;102693.23;1721103;82;21153;-45
2020/12/07 01:46:19;;;;;;;20.15;6.60;;;;;;;4.70;61.19;102703.47;1725045;82;21196;-45
2020/12/07 01:48:47;;;;;;;16.82;7.10;;;;;;;4.67;61.20;102705.56;1683348;84;21183;-45
2020/12/07 01:51:16;;;;;;;13.43;6.97;;;;;;;4.65;61.10;102698.19;1687762;84;21291;-45
2020/12/07 01:53:44;;;;;;;11.28;6.85;;;;;;;4.64;61.30;102702.87;1681431;82;21260;-46
2020/12/07 01:56:17;;;;;;;15.90;7.60;;;;;;;4.62;61.26;102707.09;1682039;84;21280;-45
2020/12/07 01:58:45;;;;;;;10.98;6.10;;;;;;;4.61;61.02;102700.61;1678247;84;21230;-45
2020/12/07 02:01:13;;;;;;;14.07;6.58;;;;;;;4.61;60.91;102711.80;1684228;84;21351;-46
2020/12/07 02:03:42;;;;;;;10.75;6.35;;;;;;;4.59;60.98;102712.17;1680383;84;21211;-45
2020/12/07 02:06:11;;;;;;;19.40;8.05;;;;;;;4.58;60.94;102712.98;1673262;84;21183;-45
2020/12/07 02:08:39;;;;;;;16.15;7.10;;;;;;;4.54;60.67;102703.39;1681344;84;21170;-46
2020/12/07 02:11:10;;;;;;;13.95;7.65;;;;;;;4.50;60.79;102695.09;1681464;84;21151;-45
2020/12/07 02:13:39;;;;;;;18.98;6.62;;;;;;;4.47;60.73;102699.28;1682957;84;21324;-46
2020/12/07 02:16:08;;;;;;;15.23;6.87;;;;;;;4.43;60.81;102694.41;1683242;84;21377;-46
2020/12/07 02:18:38;;;;;;;13.00;7.33;;;;;;;4.39;60.91;102704.59;1679856;84;21203;-45
2020/12/07 02:21:07;;;;;;;16.73;6.95;;;;;;;4.37;61.11;102710.95;1686247;84;21313;-45
2020/12/07 02:23:45;;;;;;;14.73;6.03;;;;;;;4.43;61.08;102710.30;1809643;79;22900;-46
2020/12/07 02:26:15;;;;;;;10.78;5.65;;;;;;;4.38;61.04;102715.30;1777856;80;21156;-45
2020/12/07 02:28:49;;;;;;;13.15;6.75;;;;;;;4.40;60.94;102709.78;1776787;80;21191;-45
2020/12/07 02:31:19;;;;;;;19.55;8.08;;;;;;;4.43;60.83;102702.58;1776182;80;21148;-45
2020/12/07 02:33:47;;;;;;;11.12;6.45;;;;;;;4.45;60.93;102699.20;1775121;80;21156;-45
2020/12/07 02:36:16;;;;;;;14.53;6.83;;;;;;;4.45;60.82;102701.78;1776029;80;21663;-45
2020/12/07 02:38:46;;;;;;;13.50;6.70;;;;;;;4.45;60.71;102692.75;1772480;80;21594;-45
2020/12/07 02:41:14;;;;;;;13.45;6.45;;;;;;;4.42;60.52;102695.25;1779021;80;21537;-45
2020/12/07 02:43:43;;;;;;;19.65;7.92;;;;;;;4.37;60.57;102698.06;1755412;80;21596;-46
2020/12/07 02:46:13;;;;;;;15.58;7.30;;;;;;;4.34;60.54;102695.41;1780152;80;21739;-46
2020/12/07 02:48:41;;;;;;;12.50;6.90;;;;;;;4.29;60.44;102680.18;1777716;80;21188;-46
2020/12/07 02:51:11;;;;;;;15.45;7.92;;;;;;;4.29;60.61;102684.05;1777771;80;21180;-46
2020/12/07 02:53:40;;;;;;;14.10;6.42;;;;;;;4.25;60.64;102684.77;1779260;80;21152;-48
2020/12/07 02:56:10;;;;;;;13.55;6.80;;;;;;;4.25;60.60;102669.30;1775282;80;21588;-45
2020/12/07 02:58:41;;;;;;;15.03;7.40;;;;;;;4.24;60.77;102676.59;1770902;80;21183;-45
2020/12/07 03:01:09;;;;;;;15.90;7.92;;;;;;;4.25;60.86;102683.48;1783583;80;21541;-46
2020/12/07 03:03:37;;;;;;;21.55;7.97;;;;;;;4.26;60.83;102685.25;1776928;80;21168;-45
2020/12/07 03:06:06;;;;;;;17.57;8.08;;;;;;;4.26;60.64;102683.95;1776940;80;21148;-45
2020/12/07 03:08:35;;;;;;;14.28;7.97;;;;;;;4.26;61.06;102677.52;1778735;80;21171;-45
2020/12/07 03:11:06;;;;;;;15.98;7.53;;;;;;;4.30;61.09;102685.81;1775210;80;21132;-45
2020/12/07 03:13:36;;;;;;;15.93;7.80;;;;;;;4.32;60.96;102680.30;1780049;80;21192;-45
2020/12/07 03:16:04;;;;;;;12.73;6.87;;;;;;;4.32;60.86;102668.70;1775947;80;21855;-46
2020/12/07 03:18:35;;;;;;;11.55;6.53;;;;;;;4.31;60.67;102679.81;1779354;80;21109;-45
2020/12/07 03:21:05;;;;;;;14.40;7.05;;;;;;;4.31;60.78;102681.55;1772995;80;21583;-45
2020/12/07 03:23:33;;;;;;;13.90;6.97;;;;;;;4.31;60.53;102679.81;1766053;80;21318;-45
2020/12/07 03:26:04;;;;;;;22.45;9.93;;;;;;;4.32;60.49;102686.74;1760139;81;21511;-45
2020/12/07 03:28:33;;;;;;;102.05;65.70;;;;;;;4.32;60.46;102681.59;1763426;81;21192;-45
2020/12/07 03:31:02;;;;;;;227.53;169.02;;;;;;;4.27;60.29;102668.95;1763554;81;21153;-45
2020/12/07 03:33:30;;;;;;;101.62;82.37;;;;;;;4.24;60.80;102659.84;1764029;81;21195;-46
2020/12/07 03:35:59;;;;;;;148.38;118.62;;;;;;;4.26;60.74;102659.48;1759436;81;21605;-45
2020/12/07 03:38:29;;;;;;;148.02;123.70;;;;;;;4.24;60.59;102663.70;1751666;81;21165;-45
2020/12/07 03:40:58;;;;;;;117.87;95.87;;;;;;;4.26;60.67;102669.78;1763319;81;21188;-46
2020/12/07 03:43:34;;;;;;;82.67;54.03;;;;;;;4.29;60.63;102672.85;1768065;81;21129;-45
2020/12/07 03:46:02;;;;;;;207.22;177.87;;;;;;;4.28;60.42;102673.29;1763566;81;21156;-46
2020/12/07 03:48:32;;;;;;;159.75;142.47;;;;;;;4.31;60.76;102672.09;1762280;81;21582;-46
2020/12/07 03:51:01;;;;;;;152.20;134.37;;;;;;;4.33;60.51;102670.44;1761660;81;21599;-46
2020/12/07 03:53:37;;;;;;;66.10;53.80;;;;;;;4.35;60.55;102674.37;1767268;81;21629;-45
2020/12/07 03:56:07;;;;;;;80.00;68.37;;;;;;;4.31;60.33;102679.81;1766172;81;21157;-45
2020/12/07 03:58:38;;;;;;;163.15;130.97;;;;;;;4.31;60.37;102675.95;1766278;81;21140;-45
2020/12/07 04:01:09;;;;;;;74.58;58.73;;;;;;;4.31;60.41;102676.39;1757704;81;21144;-45
2020/12/07 04:03:40;;;;;;;119.53;107.27;;;;;;;4.30;60.69;102678.48;1762631;81;21279;-46
2020/12/07 04:06:15;;;;;;;;;;;;;;;4.28;60.83;102677.56;1765499;81;21291;-45
2020/12/07 04:08:40;;;;;;;104.87;92.72;;;;;;;4.29;61.30;102678.89;1759839;81;20234;-46
2020/12/07 04:11:08;;;;;;;141.97;107.60;;;;;;;4.32;61.04;102679.02;1763130;81;21664;-45
2020/12/07 04:13:36;;;;;;;297.00;197.62;;;;;;;4.34;61.05;102679.94;1768672;81;21144;-45
2020/12/07 04:16:05;;;;;;;513.05;336.18;;;;;;;4.34;60.56;102682.52;1764611;81;21113;-45
2020/12/07 04:18:33;;;;;;;837.72;551.73;;;;;;;4.31;60.76;102690.13;1763109;81;21724;-45
2020/12/07 04:21:02;;;;;;;573.85;356.85;;;;;;;4.31;61.06;102684.97;1762433;80;21121;-45
2020/12/07 04:23:31;;;;;;;590.92;375.52;;;;;;;4.29;61.01;102687.91;1761850;81;21196;-45
2020/12/07 04:25:59;;;;;;;529.70;327.13;;;;;;;4.26;60.84;102689.11;1762756;81;21156;-45
2020/12/07 04:28:28;;;;;;;616.58;374.20;;;;;;;4.24;60.63;102678.28;1763075;81;21159;-46
2020/12/07 04:30:57;;;;;;;222.60;114.85;;;;;;;4.23;61.02;102681.66;1765049;81;21200;-46
2020/12/07 04:33:25;;;;;;;320.63;169.37;;;;;;;4.23;60.97;102673.53;1764123;81;22419;-45
2020/12/07 04:35:54;;;;;;;454.98;255.72;;;;;;;4.25;61.00;102673.17;1764008;81;21322;-46
2020/12/07 04:38:23;;;;;;;339.93;165.57;;;;;;;4.26;61.19;102675.34;1765259;81;21307;-45
2020/12/07 04:40:51;;;;;;;357.45;170.80;;;;;;;4.25;61.11;102668.02;1761685;81;21315;-45
2020/12/07 04:43:19;;;;;;;421.85;212.60;;;;;;;4.26;61.12;102678.80;1776461;81;21181;-45
2020/12/07 04:45:48;;;;;;;384.92;185.90;;;;;;;4.24;61.16;102668.86;1764768;81;21161;-46
2020/12/07 04:48:16;;;;;;;185.35;91.63;;;;;;;4.24;61.25;102675.30;1765187;81;21181;-46
2020/12/07 04:50:44;;;;;;;199.17;93.35;;;;;;;4.26;61.06;102663.34;1766172;81;21132;-45
2020/12/07 04:53:13;;;;;;;251.30;119.55;;;;;;;4.25;61.21;102660.28;1766054;81;21129;-45
2020/12/07 04:55:42;;;;;;;101.75;47.65;;;;;;;4.25;61.16;102648.69;1764750;81;21565;-45
2020/12/07 04:58:10;;;;;;;115.88;55.43;;;;;;;4.24;61.02;102654.69;1763282;80;21141;-45
2020/12/07 05:00:39;;;;;;;54.13;27.58;;;;;;;4.23;61.45;102642.61;1755167;81;21148;-45
2020/12/07 05:03:08;;;;;;;54.25;28.67;;;;;;;4.21;61.42;102649.41;1766001;81;21161;-46
2020/12/07 05:05:36;;;;;;;31.75;13.68;;;;;;;4.20;61.30;102646.79;1765911;81;21192;-45
2020/12/07 05:08:04;;;;;;;37.23;19.77;;;;;;;4.22;61.26;102640.88;1764589;81;21149;-45
2020/12/07 05:10:37;;;;;;;28.20;14.15;;;;;;;4.23;61.17;102640.03;1762623;80;21184;-45
2020/12/07 05:15:41;;;;;;;27.07;14.38;;;;;;;4.18;60.96;102644.17;1763017;81;21675;-45
2020/12/07 05:18:09;;;;;;;46.40;20.90;;;;;;;4.19;61.14;102640.75;1762800;81;21157;-46
2020/12/07 05:20:38;;;;;;;41.20;17.82;;;;;;;4.17;61.31;102641.52;1765140;81;21176;-45
2020/12/07 05:23:06;;;;;;;45.70;17.90;;;;;;;4.16;61.50;102635.52;1766378;81;21140;-44
2020/12/07 05:25:34;;;;;;;54.65;23.25;;;;;;;4.18;61.17;102646.75;1765865;81;21302;-45
2020/12/07 05:28:03;;;;;;;53.25;23.60;;;;;;;4.18;61.35;102650.61;1770138;81;21134;-46
2020/12/07 05:30:35;;;;;;;37.48;16.82;;;;;;;4.20;61.55;102657.98;1768851;80;21152;-46
2020/12/07 05:33:04;;;;;;;34.78;14.60;;;;;;;4.21;61.27;102646.84;1765075;81;21165;-46
2020/12/07 05:35:39;;;;;;;50.85;22.98;;;;;;;4.22;61.22;102649.89;1765947;81;21216;-46
2020/12/07 05:38:07;;;;;;;57.35;24.65;;;;;;;4.25;61.22;102649.09;1740251;82;21614;-45
2020/12/07 05:40:36;;;;;;;44.18;20.85;;;;;;;4.22;61.33;102651.18;1740117;82;21309;-46
2020/12/07 05:43:05;;;;;;;39.00;16.20;;;;;;;4.21;61.50;102654.56;1738220;82;21282;-45
2020/12/07 05:45:34;;;;;;;63.08;26.17;;;;;;;4.21;61.63;102646.84;1730690;82;21301;-46
2020/12/07 05:48:02;;;;;;;26.95;13.32;;;;;;;4.22;61.64;102648.61;1737033;82;21111;-46
2020/12/07 05:50:30;;;;;;;13.80;8.45;;;;;;;4.24;61.58;102646.07;1738145;82;21155;-46
2020/12/07 05:53:00;;;;;;;11.90;6.78;;;;;;;4.24;61.50;102646.07;1704654;83;21201;-46
2020/12/07 05:55:28;;;;;;;11.75;6.97;;;;;;;4.23;61.39;102650.74;1740186;82;21607;-46
2020/12/07 05:58:06;;;;;;;14.80;7.78;;;;;;;4.19;61.32;102653.64;1738972;82;21631;-45
2020/12/07 06:00:35;;;;;;;11.53;5.97;;;;;;;4.13;61.52;102663.73;1744790;82;21252;-45
2020/12/07 06:03:05;;;;;;;12.60;6.45;;;;;;;4.12;61.60;102662.00;1738155;82;21175;-45
2020/12/07 06:05:39;;;;;;;10.67;7.73;;;;;;;4.13;61.65;102663.73;1788150;77;28155;-46
2020/12/07 06:08:18;;;;;;;13.40;7.67;;;;;;;4.10;61.45;102659.78;1748536;81;21170;-46
2020/12/07 06:10:56;;;;;;;8.95;5.75;;;;;;;4.14;61.13;102665.50;1748114;81;21553;-45
2020/12/07 06:13:25;;;;;;;11.88;6.15;;;;;;;4.13;61.22;102666.31;1745013;80;21176;-45
2020/12/07 06:15:54;;;;;;;7.92;5.42;;;;;;;4.10;60.88;102676.53;1755235;81;21145;-45
2020/12/07 06:18:36;;;;;;;10.20;5.72;;;;;;;4.06;60.76;102660.47;1746630;80;21172;-49
2020/12/07 06:21:05;;;;;;;;;;;;;;;4.02;60.81;102656.03;1755467;81;21708;-45
2020/12/07 06:23:41;;;;;;;10.70;5.85;;;;;;;3.95;60.99;102655.38;1768019;81;20161;-45
2020/12/07 06:26:15;;;;;;;10.30;6.42;;;;;;;3.88;60.91;102657.25;1656641;85;21620;-45
2020/12/07 06:28:45;;;;;;;11.68;6.28;;;;;;;3.84;61.08;102664.41;1662431;85;21370;-45
2020/12/07 06:31:17;;;;;;;9.35;5.65;;;;;;;3.81;61.00;102648.86;1663307;85;21616;-46
2020/12/07 06:33:53;;;;;;;10.53;5.72;;;;;;;3.85;61.09;102657.16;1771619;79;23412;-45
2020/12/07 06:36:35;;;;;;;10.13;5.97;;;;;;;3.80;61.17;102656.99;1737915;82;21116;-45
2020/12/07 06:39:10;;;;;;;;;;;;;;;3.81;61.16;102660.02;1740882;82;21148;-45
2020/12/07 06:41:43;;;;;;;11.00;5.80;;;;;;;3.79;60.94;102656.94;1738482;82;20144;-46
2020/12/07 06:44:23;;;;;;;8.58;5.85;;;;;;;3.75;60.95;102653.80;1629248;87;21201;-45
2020/12/07 06:55:11;;;;;;;10.68;7.00;;;;;;;3.81;61.15;102635.98;1794480;79;38480;-46
2020/12/07 06:57:53;;;;;;;7.72;5.65;;;;;;;3.78;61.23;102641.02;1725700;83;21247;-45
2020/12/07 07:00:26;;;;;;;7.78;5.05;;;;;;;3.83;61.03;102632.62;1719453;83;21325;-45
2020/12/07 07:02:59;;;;;;;8.55;5.20;;;;;;;3.87;60.92;102637.48;1810108;79;22984;-46
2020/12/07 07:05:29;;;;;;;8.80;4.70;;;;;;;3.81;61.12;102649.72;1774550;80;21708;-46
2020/12/07 07:07:59;;;;;;;9.65;4.97;;;;;;;3.79;61.01;102634.63;1771223;80;21156;-45
2020/12/07 07:10:27;;;;;;;8.95;4.85;;;;;;;3.77;60.76;102641.85;1784310;80;21306;-45
2020/12/07 07:12:56;;;;;;;7.97;5.12;;;;;;;3.70;60.67;102643.73;1792912;80;21137;-45
2020/12/07 07:15:25;;;;;;;9.05;5.10;;;;;;;3.66;60.54;102644.04;1792355;80;21349;-46
2020/12/07 07:17:53;;;;;;;8.50;5.17;;;;;;;3.62;60.66;102637.42;1793011;80;21176;-45
2020/12/07 07:20:21;;;;;;;9.98;5.30;;;;;;;3.57;60.69;102640.23;1790192;80;21148;-45
2020/12/07 07:22:50;;;;;;;10.60;5.92;;;;;;;3.55;61.07;102638.02;1790760;80;21334;-45
2020/12/07 07:28:06;;;;;;;13.22;8.45;;;;;;;3.58;61.13;102643.29;1771550;79;22914;-45
2020/12/07 07:30:34;;;;;;;8.80;5.60;;;;;;;3.55;60.89;102646.62;1738535;82;21117;-45
2020/12/07 07:33:03;;;;;;;6.60;5.05;;;;;;;3.55;60.88;102640.19;1735283;82;21164;-45
2020/12/07 07:35:32;;;;;;;9.00;5.40;;;;;;;3.54;60.84;102646.17;1737135;82;21297;-46
2020/12/07 07:38:00;;;;;;;10.20;6.03;;;;;;;3.51;60.77;102641.30;1731592;82;21176;-45
2020/12/07 07:40:29;;;;;;;9.28;6.03;;;;;;;3.50;60.74;102648.56;1738078;82;21200;-45
2020/12/07 07:43:04;;;;;;;7.03;4.78;;;;;;;3.50;60.72;102651.14;1733783;82;21313;-45
2020/12/07 07:45:38;;;;;;;9.95;5.87;;;;;;;3.49;60.82;102642.94;1741666;82;21152;-45
2020/12/07 08:15:57;;;;;;;8.80;5.08;;;;;;;3.63;61.65;102622.44;1731529;82;21187;-45
2020/12/07 08:18:37;;;;;;;11.03;5.75;;;;;;;3.59;61.69;102618.00;1732682;82;21573;-45
2020/12/07 08:21:05;;;;;;;9.50;5.10;;;;;;;3.59;61.78;102610.27;1693834;84;21175;-46
2020/12/07 08:23:34;;;;;;;9.18;5.20;;;;;;;3.56;61.71;102620.48;1689059;84;21178;-45
2020/12/07 08:26:04;;;;;;;9.63;4.90;;;;;;;3.55;61.80;102610.98;1696519;83;21162;-45
2020/12/07 08:28:40;;;;;;;13.83;5.33;;;;;;;3.58;61.84;102604.27;1690102;84;21242;-45
2020/12/07 08:31:14;;;;;;;13.78;5.62;;;;;;;3.61;61.64;102606.06;1689223;84;21206;-45
2020/12/07 08:34:04;;;;;;;9.15;4.60;;;;;;;3.64;61.88;102595.89;1679546;85;21698;-46
2020/12/07 08:36:33;;;;;;;9.40;4.40;;;;;;;3.68;61.75;102592.59;1689689;84;21202;-45
2020/12/07 08:39:01;;;;;;;10.68;5.08;;;;;;;3.73;61.49;102587.21;1693589;84;21914;-46
2020/12/07 08:41:31;;;;;;;7.47;4.10;;;;;;;3.76;61.45;102587.30;1688295;84;21616;-46
2020/12/07 08:44:07;;;;;;;6.62;4.55;;;;;;;3.80;61.53;102581.44;1688711;84;21635;-45
2020/12/07 08:46:42;;;;;;;12.75;5.20;;;;;;;3.85;61.39;102574.76;1767272;79;22952;-45
2020/12/07 08:49:10;;;;;;;7.87;4.10;;;;;;;3.82;61.75;102569.48;1749396;80;21311;-45
2020/12/07 08:51:39;;;;;;;12.78;4.53;;;;;;;3.81;61.53;102560.88;1740453;82;21153;-46
2020/12/07 08:54:07;;;;;;;6.92;3.90;;;;;;;3.84;61.84;102558.83;1738089;82;21298;-46
2020/12/07 08:56:35;;;;;;;7.15;4.10;;;;;;;3.85;62.01;102556.73;1739659;82;21168;-46
2020/12/07 08:59:04;;;;;;;7.05;3.45;;;;;;;3.85;62.12;102542.57;1740344;82;21549;-45
2020/12/07 09:01:33;;;;;;;4.15;2.95;;;;;;;3.89;62.16;102548.28;1737730;82;21294;-45
2020/12/07 09:04:03;;;;;;;12.03;3.72;;;;;;;3.90;62.04;102536.73;1738537;81;21139;-46
2020/12/07 09:06:31;;;;;;;8.73;3.90;;;;;;;3.94;62.21;102541.57;1737580;82;21144;-46
2020/12/07 09:09:00;;;;;;;10.58;3.70;;;;;;;3.96;62.22;102540.80;1738058;82;21286;-46
2020/12/07 09:11:29;;;;;;;12.85;3.85;;;;;;;3.96;62.09;102536.94;1738428;82;21184;-45
2020/12/07 09:13:58;;;;;;;7.17;3.87;;;;;;;3.96;62.07;102543.78;1738852;82;21125;-45
2020/12/07 09:16:26;;;;;;;6.20;3.60;;;;;;;3.99;62.19;102537.46;1741276;82;21148;-45
2020/12/07 09:18:54;;;;;;;7.62;4.00;;;;;;;4.00;62.16;102533.64;1740945;82;21187;-46
2020/12/07 09:21:23;;;;;;;11.73;4.28;;;;;;;4.03;62.26;102526.03;1736974;82;21160;-45
2020/12/07 09:23:51;;;;;;;9.13;4.58;;;;;;;4.06;62.20;102524.83;1727866;82;21115;-45
2020/12/07 09:26:20;;;;;;;7.28;3.87;;;;;;;4.06;62.23;102520.96;1740855;82;21144;-45
2020/12/07 09:28:48;;;;;;;6.87;3.87;;;;;;;4.06;62.04;102522.66;1740434;82;21200;-45
2020/12/07 09:31:16;;;;;;;6.37;4.15;;;;;;;4.08;61.79;102523.61;1737984;82;21327;-46
2020/12/07 09:33:47;;;;;;;7.10;3.72;;;;;;;4.08;61.98;102526.19;1739653;82;21152;-46
2020/12/07 09:36:15;;;;;;;4.58;3.30;;;;;;;4.07;62.06;102521.84;1723809;83;21196;-45
2020/12/07 09:38:44;;;;;;;7.75;4.20;;;;;;;4.07;62.02;102507.27;1741134;82;21156;-45
2020/12/07 09:41:12;;;;;;;12.73;3.92;;;;;;;4.07;61.96;102508.97;1740910;82;21124;-46
2020/12/07 09:43:40;;;;;;;4.95;3.22;;;;;;;4.07;61.93;102506.39;1739491;82;21152;-45
2020/12/07 09:46:09;;;;;;;13.28;4.50;;;;;;;4.10;61.90;102509.08;1738288;82;21152;-45
2020/12/07 09:48:38;;;;;;;7.40;3.92;;;;;;;4.10;61.94;102509.08;1738678;82;21306;-45
2020/12/07 09:51:06;;;;;;;6.53;4.28;;;;;;;4.12;62.03;102500.98;1738606;82;21168;-45
2020/12/07 09:53:35;;;;;;;7.05;4.65;;;;;;;4.12;61.88;102506.14;1738658;82;21188;-46
2020/12/07 09:56:05;;;;;;;9.25;4.75;;;;;;;4.11;62.00;102509.13;1738558;82;21160;-46
2020/12/07 09:58:33;;;;;;;7.05;3.42;;;;;;;4.09;61.95;102498.30;1740621;82;21160;-46
2020/12/07 10:01:02;;;;;;;5.12;3.10;;;;;;;4.11;61.97;102496.23;1741573;82;21137;-46
2020/12/07 10:03:30;;;;;;;7.00;3.30;;;;;;;4.11;61.97;102487.63;1740947;82;21145;-45
2020/12/07 10:05:59;;;;;;;9.98;4.65;;;;;;;4.13;61.95;102482.11;1738565;82;21159;-46
2020/12/07 10:08:27;;;;;;;7.17;3.70;;;;;;;4.14;62.21;102489.88;1739834;82;21152;-46
2020/12/07 10:10:55;;;;;;;7.28;3.40;;;;;;;4.18;62.19;102481.86;1740444;82;21188;-46
2020/12/07 10:13:26;;;;;;;7.28;4.03;;;;;;;4.21;62.05;102479.36;1736226;82;21609;-45
2020/12/07 10:15:55;;;;;;;7.90;4.22;;;;;;;4.25;61.70;102483.78;1743157;82;21148;-45
2020/12/07 10:18:24;;;;;;;6.67;4.78;;;;;;;4.30;61.89;102482.64;1740399;82;21144;-46
2020/12/07 10:20:54;;;;;;;4.87;3.37;;;;;;;4.32;62.02;102484.45;1738415;82;22266;-45
2020/12/07 10:23:22;;;;;;;8.83;4.40;;;;;;;4.32;62.06;102490.89;1738063;82;21302;-46
2020/12/07 10:25:52;;;;;;;11.50;4.97;;;;;;;4.32;62.06;102489.60;1738121;82;21290;-45
2020/12/07 10:28:22;;;;;;;10.40;5.08;;;;;;;4.33;61.98;102486.62;1726592;82;21567;-45
2020/12/07 10:30:50;;;;;;;8.78;4.65;;;;;;;4.33;62.06;102492.62;1738605;82;21159;-45
2020/12/07 10:33:19;;;;;;;6.45;3.70;;;;;;;4.33;61.93;102484.89;1730488;82;21302;-42
2020/12/07 10:35:47;;;;;;;5.30;3.90;;;;;;;4.31;61.78;102494.28;1741432;82;21342;-45
2020/12/07 10:38:16;;;;;;;7.10;4.05;;;;;;;4.29;61.91;102478.30;1736018;82;21149;-45
2020/12/07 10:40:44;;;;;;;7.50;6.37;;;;;;;4.27;62.23;102483.41;1741211;82;21148;-46
2020/12/07 10:43:13;;;;;;;10.32;7.95;;;;;;;4.26;62.27;102482.09;1711901;82;21168;-45
2020/12/07 10:45:42;;;;;;;7.12;4.60;;;;;;;4.23;62.19;102482.86;1734812;81;21153;-46
2020/12/07 10:48:12;;;;;;;40.80;25.82;;;;;;;4.19;62.14;102473.28;1726599;82;21181;-42
2020/12/07 10:50:41;;;;;;;105.37;66.50;;;;;;;4.15;62.11;102463.71;1722633;82;21145;-45
2020/12/07 10:53:10;;;;;;;27.05;19.65;;;;;;;4.16;62.16;102470.63;1729282;82;21158;-46
2020/12/07 10:55:41;;;;;;;6.85;4.72;;;;;;;4.16;62.25;102465.48;1727153;82;21570;-45
2020/12/07 10:58:09;;;;;;;6.53;3.72;;;;;;;4.13;62.30;102455.06;1711956;82;21164;-46
2020/12/07 11:00:38;;;;;;;4.80;2.90;;;;;;;4.08;62.24;102455.34;1725453;82;21173;-46
2020/12/07 11:03:06;;;;;;;5.25;3.05;;;;;;;4.09;62.79;102453.22;1726706;82;21164;-46
2020/12/07 11:05:38;;;;;;;4.60;2.62;;;;;;;4.09;63.08;102460.95;1721048;82;21157;-45
2020/12/07 11:08:20;;;;;;;6.08;3.17;;;;;;;4.11;63.14;102455.43;1728327;82;21121;-45
2020/12/07 11:10:42;;;;;;;3.35;2.35;;;;;;;4.13;63.22;102455.06;1721122;82;21109;-45
2020/12/07 11:15:48;;;;;;;4.62;2.55;;;;;;;4.22;63.23;102437.33;1810065;79;21136;-42
2020/12/07 11:18:17;;;;;;;5.08;2.52;;;;;;;4.19;63.31;102439.79;1776471;80;21151;-46
2020/12/07 11:20:45;;;;;;;3.12;2.42;;;;;;;4.17;63.46;102431.14;1775125;80;21171;-45
2020/12/07 11:23:13;;;;;;;4.10;2.80;;;;;;;4.14;63.51;102428.49;1781077;80;21569;-45
2020/12/07 11:25:44;;;;;;;5.62;2.87;;;;;;;4.13;63.76;102437.91;1773059;80;21324;-45
2020/12/07 11:28:12;;;;;;;5.47;2.95;;;;;;;4.15;63.90;102437.95;1779195;80;21285;-46
2020/12/07 11:30:41;;;;;;;3.65;2.72;;;;;;;4.17;63.76;102439.27;1776738;80;21183;-45
2020/12/07 11:33:09;;;;;;;4.22;2.27;;;;;;;4.17;63.86;102432.84;1784378;80;21124;-45
2020/12/07 11:35:39;;;;;;;5.55;2.87;;;;;;;4.17;63.92;102437.58;1780651;80;21184;-45
2020/12/07 11:38:17;;;;;;;9.25;3.50;;;;;;;4.18;64.12;102444.91;1776016;80;21175;-45
2020/12/07 11:40:55;;;;;;;6.45;3.70;;;;;;;4.21;64.54;102431.70;1780099;80;21160;-45
2020/12/07 11:43:39;;;;;;;6.95;4.15;;;;;;;4.27;64.82;102433.17;1772811;80;21159;-46
2020/12/07 11:45:58;;;;;;;7.80;4.33;;;;;;;4.32;64.82;102434.20;1772781;80;21112;-46
2020/12/07 11:48:26;;;;;;;11.88;4.75;;;;;;;4.38;65.01;102440.82;1781666;80;21150;-42
2020/12/07 11:50:55;;;;;;;7.75;4.00;;;;;;;4.42;64.75;102438.80;1770589;80;21603;-45
2020/12/07 11:53:23;;;;;;;7.45;4.17;;;;;;;4.48;64.37;102435.11;1783523;80;21572;-45
2020/12/07 11:55:52;;;;;;;9.65;4.92;;;;;;;4.53;64.36;102437.42;1766579;80;21144;-45
2020/12/07 11:58:21;;;;;;;8.13;4.70;;;;;;;4.56;64.51;102434.91;1776724;80;21135;-46
2020/12/07 12:00:49;;;;;;;12.55;6.95;;;;;;;4.59;64.62;102427.28;1782680;80;21171;-47
2020/12/07 12:03:19;;;;;;;10.58;5.22;;;;;;;4.61;64.62;102423.45;1771957;80;21158;-45
2020/12/07 12:05:47;;;;;;;10.95;6.05;;;;;;;4.65;64.41;102432.62;1780723;80;21309;-45
2020/12/07 12:08:16;;;;;;;11.00;6.05;;;;;;;4.68;64.35;102433.09;1771145;80;21286;-45
2020/12/07 12:10:49;;;;;;;10.08;5.35;;;;;;;4.71;64.32;102432.79;1783649;80;21171;-45
2020/12/07 12:13:17;;;;;;;13.45;6.92;;;;;;;4.72;64.34;102428.48;1770665;80;21116;-46
2020/12/07 12:15:53;;;;;;;14.00;7.42;;;;;;;4.71;64.43;102429.33;1769109;80;21152;-46
2020/12/07 12:18:21;;;;;;;10.05;6.10;;;;;;;4.69;64.70;102406.50;1759211;81;21144;-45
2020/12/07 12:20:49;;;;;;;8.35;5.70;;;;;;;4.66;64.67;102421.45;1764189;81;21561;-45